Nearby METAR Reports

KLNK - Lincoln, Nebraska, USA
Distance from station: WNW 8mi, 13km
Updated: Wed, 19-Sep-2018 9:54am CDT
Few Clouds
Few Clouds
 Wind from E
Wind: E 5 mph , 7 km/h
Temperature: 77°F , 25°C
Dew Point: 70°F , 21°C
Humidity: 79%
Barometer: 29.89 inHg , 1012.2 hPa
Clouds: Few Clouds
Visibility: 10 miles , 16 km
Cloud details: Few Clouds 8000 ft
2018/09/19 14:54 KLNK 191454Z 08004KT 10SM FEW080 25/21 A2989 RMK AO2 SLP111 T02500206 51006
KAHQ - Wahoo, Nebraska, USA
Distance from station: N 31mi, 49km
Updated: Wed, 19-Sep-2018 10:15am CDT
Mist, Overcast
Mist, Overcast
 Wind from E
Wind: E 9 mph , 15 km/h
Temperature: 70°F , 21°C
Dew Point: 70°F , 21°C
Humidity: 100%
Barometer: 29.91 inHg , 1012.9 hPa
Summary: Mist
Clouds: Overcast
Visibility: 4 miles , 6 km
Cloud details: Overcast 300 ft
2018/09/19 15:15 KAHQ 191515Z AUTO 08008KT 4SM BR OVC003 21/21 A2991 RMK AO2 T02100210
 
KBIE - Beatrice Municip, Nebraska, USA
Distance from station: S 36mi, 57km
Updated: Wed, 19-Sep-2018 10:15am CDT
Clear
Clear
 Wind from SSE
Wind: SSE 8 mph , 13 km/h
Temperature: 82°F , 28°C
Heat Index: 86°F , 30°C
Dew Point: 72°F , 22°C
Humidity: 70%
Barometer: 29.89 inHg , 1012.2 hPa
Clouds: Clear
Visibility: 10 miles , 16 km
2018/09/19 15:15 KBIE 191515Z AUTO 16007KT 10SM CLR 28/22 A2989 RMK AO2 T02830222
KMLE - Omaha/Millard, Nebraska, USA
Distance from station: NE 39mi, 63km
Updated: Wed, 19-Sep-2018 10:15am CDT
Overcast
Overcast
 Wind from E
Wind: E 5 mph , 7 km/h
Temperature: 73°F , 23°C
Dew Point: 70°F , 21°C
Humidity: 89%
Barometer: 29.91 inHg , 1012.9 hPa
Clouds: Overcast
Visibility: 7 miles , 11 km
Cloud details: Mostly Cloudy 800 ft
Overcast 1400 ft
2018/09/19 15:15 KMLE 191515Z AUTO 10004KT 7SM BKN008 OVC014 23/21 A2991 RMK AO2 T02300209
 
KPMV - Plattsmouth Muni, Nebraska, USA
Distance from station: ENE 39mi, 63km
Updated: Wed, 19-Sep-2018 10:15am CDT
Partly Cloudy
Partly Cloudy
 Wind from E
Wind: E 5 mph , 7 km/h
Temperature: 77°F , 25°C
Dew Point: 72°F , 22°C
Humidity: 83%
Barometer: 29.91 inHg , 1012.9 hPa
Clouds: Partly Cloudy
Visibility: 10 miles , 16 km
Cloud details: Partly Cloudy 900 ft
Partly Cloudy 7000 ft
2018/09/19 15:15 KPMV 191515Z AUTO 08004KT 10SM SCT009 SCT070 25/22 A2991 RMK AO2 T02460219
KAFK - Nebraska City, Nebraska, USA
Distance from station: ESE 43mi, 69km
Updated: Wed, 19-Sep-2018 10:15am CDT
Clear
Clear
 Wind from S
Wind: S 9 mph , 15 km/h
Temperature: 81°F , 27°C
Heat Index: 85°F , 29°C
Dew Point: 70°F , 21°C
Humidity: 70%
Barometer: 29.90 inHg , 1012.5 hPa
Clouds: Clear
Visibility: 10 miles , 16 km
2018/09/19 15:15 KAFK 191515Z AUTO 19008KT 10SM CLR 27/21 A2990 RMK AO2 T02650206
 
KOFF - Offutt Afb/Belle, Nebraska, USA
Distance from station: ENE 44mi, 70km
Updated: Wed, 19-Sep-2018 10:16am CDT
Mostly Cloudy
Mostly Cloudy
 Wind from ENE
Wind: ENE 10 mph , 17 km/h
Temperature: 75°F , 24°C
Dew Point: 70°F , 21°C
Humidity: 83%
Barometer: 29.90 inHg , 1012.5 hPa
Clouds: Mostly Cloudy
Visibility: 10 miles , 16 km
Cloud details: Mostly Cloudy 600 ft
2018/09/19 15:16 KOFF 191516Z AUTO 06009KT 10SM BKN006 24/21 A2990 RMK AO2 SLP123 $
KFET - Fremont Muni Arp, Nebraska, USA
Distance from station: N 46mi, 74km
Updated: Wed, 19-Sep-2018 10:15am CDT
Overcast
Overcast
 Wind from E
Wind: E 8 mph , 13 km/h
Temperature: 72°F , 22°C
Dew Point: 68°F , 20°C
Humidity: 88%
Barometer: 29.92 inHg , 1013.2 hPa
Clouds: Overcast
Visibility: 7 miles , 11 km
Cloud details: Overcast 600 ft
2018/09/19 15:15 KFET 191515Z AUTO 09007KT 7SM OVC006 22/20 A2992 RMK AO2 T02160199
 
KBTA - Blair Muni, Nebraska, USA
Distance from station: NNE 51mi, 82km
Updated: Wed, 19-Sep-2018 10:15am CDT
Mist, Overcast
Mist, Overcast
 Wind from ENE
Wind: ENE 12 mph , 19 km/h
Temperature: 70°F , 21°C
Dew Point: 68°F , 20°C
Humidity: 94%
Barometer: 29.92 inHg , 1013.2 hPa
Summary: Mist
Clouds: Overcast
Visibility: 4 miles , 6 km
Cloud details: Overcast 200 ft
2018/09/19 15:15 KBTA 191515Z AUTO 07010KT 4SM BR OVC002 21/20 A2992 RMK AO2 T02050201
KJYR - York, Nebraska, USA
Distance from station: W 52mi, 84km
Updated: Wed, 19-Sep-2018 10:15am CDT
Clear
Clear
 Wind from S
Wind: S 9 mph , 15 km/h
Temperature: 81°F , 27°C
Heat Index: 84°F , 29°C
Dew Point: 68°F , 20°C
Humidity: 66%
Barometer: 29.87 inHg , 1011.5 hPa
Clouds: Clear
Visibility: 10 miles , 16 km
2018/09/19 15:15 KJYR 191515Z AUTO 19008KT 10SM CLR 27/20 A2987 RMK AO2
 
KOMA - Omaha/Eppley, Nebraska, USA
Distance from station: NE 53mi, 85km
Updated: Wed, 19-Sep-2018 10:00am CDT
Overcast
Overcast
 Wind from E
Wind: E 8 mph , 13 km/h
Temperature: 72°F , 22°C
Dew Point: 66°F , 19°C
Humidity: 83%
Barometer: 29.91 inHg , 1012.9 hPa
Clouds: Overcast
Visibility: 10 miles , 16 km
Cloud details: Mostly Cloudy 600 ft
Overcast 1500 ft
2018/09/19 15:00 KOMA 191500Z 08007KT 10SM BKN006 OVC015 22/19 A2991 RMK AO2 T02170194
KOLU - Columbus Muni, Nebraska, USA
Distance from station: NW 58mi, 93km
Updated: Wed, 19-Sep-2018 10:03am CDT
Mist, Overcast
Mist, Overcast
 Wind from ENE
Wind: ENE 13 mph , 20 km/h, Gust: 20 mph , 31 km/h
Temperature: 66°F , 19°C
Dew Point: 66°F , 19°C
Humidity: 100%
Barometer: 29.90 inHg , 1012.5 hPa
Summary: Mist
Clouds: Overcast
Visibility: 3 miles , 5 km
Cloud details: Overcast 200 ft
2018/09/19 15:03 KOLU 191503Z AUTO 07011G17KT 3SM BR OVC002 19/19 A2990 RMK AO2